IFA64P ENTC-ENSB
Flight info
| Callsign | IFA64P |
|---|---|
| Flight time | 1h 24m |
| Altitude | 39000 |
| Route | LOMVI P600 VAVAD/N0470F410 P600 INPAR |
| Aircraft | CL60/M-SBDE1E2E3FGHIJ1J4J5J7M3RWXYZ/LB1V1D1 |
Departure
| Time | 2026-05-07 19:35 |
|---|---|
| Airport | Tromsø Airport (ENTC) |
Arrival
| Time | 2026-05-07 20:59 |
|---|---|
| Airport | Svalbard Airport, Longyear (ENSB) |
| Time | Latitude | Longitude | Altitude | Speed | Heading |
|---|---|---|---|---|---|
| 2026-05-07 19:12 | 69.68636 | 18.91392 | 2 ft | 0 kts | 159° |
| 2026-05-07 19:33 | 69.68640 | 18.91499 | 0 ft | 12 kts | 70° |
| 2026-05-07 19:34 | 69.68708 | 18.91670 | 0 ft | 15 kts | 13° |
| 2026-05-07 19:34 | 69.68775 | 18.91825 | 0 ft | 14 kts | 96° |
| 2026-05-07 19:34 | 69.68743 | 18.92144 | 0 ft | 13 kts | 137° |
| 2026-05-07 19:34 | 69.68706 | 18.92146 | 1 ft | 16 kts | 192° |
| 2026-05-07 19:35 | 69.68211 | 18.91813 | 5 ft | 126 kts | 192° |
| 2026-05-07 19:35 | 69.67142 | 18.91149 | 539 ft | 173 kts | 192° |
| 2026-05-07 19:35 | 69.65906 | 18.90467 | 1218 ft | 189 kts | 192° |
| 2026-05-07 19:35 | 69.64612 | 18.89506 | 1876 ft | 201 kts | 202° |
| 2026-05-07 19:36 | 69.63564 | 18.86840 | 2586 ft | 210 kts | 243° |
| 2026-05-07 19:36 | 69.63351 | 18.82776 | 3342 ft | 213 kts | 283° |
| 2026-05-07 19:36 | 69.64073 | 18.79262 | 4114 ft | 214 kts | 322° |
| 2026-05-07 19:36 | 69.65387 | 18.77188 | 4960 ft | 229 kts | 338° |
| 2026-05-07 19:37 | 69.67012 | 18.76399 | 5984 ft | 256 kts | 4° |
| 2026-05-07 19:37 | 69.68736 | 18.78050 | 7187 ft | 272 kts | 25° |
| 2026-05-07 19:37 | 69.70416 | 18.80427 | 8476 ft | 276 kts | 24° |
| 2026-05-07 19:37 | 69.72144 | 18.82856 | 9811 ft | 280 kts | 24° |
| 2026-05-07 19:38 | 69.73869 | 18.85281 | 11150 ft | 285 kts | 24° |
| 2026-05-07 19:38 | 69.75620 | 18.87748 | 12514 ft | 290 kts | 24° |
| 2026-05-07 19:38 | 69.77429 | 18.90299 | 13924 ft | 292 kts | 24° |
| 2026-05-07 19:38 | 69.79217 | 18.92827 | 15316 ft | 292 kts | 24° |
| 2026-05-07 19:39 | 69.81028 | 18.95392 | 16723 ft | 290 kts | 24° |
| 2026-05-07 19:39 | 69.82857 | 18.97538 | 18082 ft | 283 kts | 9° |
| 2026-05-07 19:39 | 69.84802 | 18.98008 | 19401 ft | 276 kts | 359° |
| 2026-05-07 19:39 | 69.86675 | 18.98150 | 20590 ft | 272 kts | 359° |
| 2026-05-07 19:40 | 69.88546 | 18.98316 | 21730 ft | 269 kts | 360° |
| 2026-05-07 19:40 | 69.90389 | 18.98479 | 22734 ft | 271 kts | 0° |
| 2026-05-07 19:40 | 69.92381 | 18.98650 | 22844 ft | 305 kts | 0° |
| 2026-05-07 19:40 | 69.94564 | 18.98841 | 23138 ft | 328 kts | 0° |
| 2026-05-07 19:41 | 69.96886 | 18.99052 | 23800 ft | 341 kts | 1° |
| 2026-05-07 19:41 | 69.99271 | 18.99273 | 24633 ft | 347 kts | 1° |
| 2026-05-07 19:41 | 70.01658 | 18.99496 | 25458 ft | 352 kts | 1° |
| 2026-05-07 19:41 | 70.04108 | 18.99725 | 26280 ft | 356 kts | 1° |
| 2026-05-07 19:42 | 70.06557 | 18.99956 | 27044 ft | 359 kts | 1° |
| 2026-05-07 19:42 | 70.09049 | 18.99457 | 27759 ft | 361 kts | 346° |
| 2026-05-07 19:42 | 70.11493 | 18.97297 | 28402 ft | 365 kts | 341° |
| 2026-05-07 19:42 | 70.13921 | 18.94960 | 28941 ft | 370 kts | 341° |
| 2026-05-07 19:43 | 70.16364 | 18.92622 | 29451 ft | 374 kts | 341° |
| 2026-05-07 19:43 | 70.18892 | 18.90200 | 29957 ft | 379 kts | 341° |
| 2026-05-07 19:43 | 70.21397 | 18.87795 | 30433 ft | 382 kts | 341° |
| 2026-05-07 19:43 | 70.23956 | 18.85335 | 30901 ft | 386 kts | 341° |
| 2026-05-07 19:44 | 70.26527 | 18.82859 | 31348 ft | 389 kts | 341° |
| 2026-05-07 19:44 | 70.29082 | 18.80393 | 31648 ft | 393 kts | 341° |
| 2026-05-07 19:44 | 70.31691 | 18.77870 | 31941 ft | 396 kts | 342° |
| 2026-05-07 19:44 | 70.34280 | 18.75361 | 32215 ft | 399 kts | 342° |
| 2026-05-07 19:45 | 70.36918 | 18.72797 | 32484 ft | 401 kts | 342° |
| 2026-05-07 19:45 | 70.39587 | 18.70199 | 32736 ft | 404 kts | 342° |
| 2026-05-07 19:45 | 70.42230 | 18.67618 | 32973 ft | 407 kts | 342° |
| 2026-05-07 19:45 | 70.44947 | 18.64959 | 33256 ft | 409 kts | 342° |
| 2026-05-07 19:46 | 70.47642 | 18.62315 | 33514 ft | 412 kts | 342° |
| 2026-05-07 19:46 | 70.50352 | 18.59648 | 33812 ft | 415 kts | 342° |
| 2026-05-07 19:46 | 70.53098 | 18.56939 | 34167 ft | 416 kts | 342° |
| 2026-05-07 19:46 | 70.55842 | 18.54226 | 34567 ft | 416 kts | 342° |
| 2026-05-07 19:47 | 70.58566 | 18.51523 | 34958 ft | 415 kts | 342° |
| 2026-05-07 19:47 | 70.61298 | 18.48807 | 35340 ft | 415 kts | 342° |
| 2026-05-07 19:47 | 70.64027 | 18.46084 | 35684 ft | 415 kts | 342° |
| 2026-05-07 19:47 | 70.66751 | 18.43361 | 35995 ft | 415 kts | 342° |
| 2026-05-07 19:48 | 70.69476 | 18.40628 | 36277 ft | 416 kts | 341° |
| 2026-05-07 19:48 | 70.72227 | 18.37862 | 36541 ft | 417 kts | 341° |
| 2026-05-07 19:48 | 70.74963 | 18.35102 | 36791 ft | 419 kts | 341° |
| 2026-05-07 19:48 | 70.77698 | 18.32337 | 37036 ft | 420 kts | 341° |
| 2026-05-07 19:49 | 70.80443 | 18.29552 | 37288 ft | 420 kts | 341° |
| 2026-05-07 19:49 | 70.83225 | 18.26723 | 37534 ft | 420 kts | 341° |
| 2026-05-07 19:49 | 70.85957 | 18.23935 | 37813 ft | 420 kts | 341° |
| 2026-05-07 19:49 | 70.88728 | 18.21101 | 38111 ft | 419 kts | 341° |
| 2026-05-07 19:50 | 70.91473 | 18.18284 | 38372 ft | 420 kts | 341° |
| 2026-05-07 19:50 | 70.94206 | 18.15472 | 38618 ft | 420 kts | 341° |
| 2026-05-07 19:50 | 70.96981 | 18.12608 | 38865 ft | 420 kts | 341° |
| 2026-05-07 19:50 | 70.99744 | 18.09749 | 39089 ft | 421 kts | 341° |
| 2026-05-07 19:51 | 71.05312 | 18.03959 | 39111 ft | 433 kts | 341° |
| 2026-05-07 19:51 | 71.11050 | 17.97955 | 39130 ft | 444 kts | 341° |
| 2026-05-07 19:52 | 71.16932 | 17.91762 | 39112 ft | 454 kts | 341° |
| 2026-05-07 19:52 | 71.22963 | 17.85371 | 39126 ft | 462 kts | 341° |
| 2026-05-07 19:53 | 71.29027 | 17.78902 | 39124 ft | 468 kts | 341° |
| 2026-05-07 19:53 | 71.35146 | 17.72332 | 39118 ft | 469 kts | 341° |
| 2026-05-07 19:54 | 71.41264 | 17.65718 | 39129 ft | 468 kts | 341° |
| 2026-05-07 19:54 | 71.47414 | 17.59026 | 39125 ft | 467 kts | 341° |
| 2026-05-07 19:55 | 71.53500 | 17.52360 | 39136 ft | 467 kts | 341° |
| 2026-05-07 19:55 | 71.59576 | 17.45660 | 39138 ft | 466 kts | 341° |
| 2026-05-07 19:56 | 71.65668 | 17.38896 | 39139 ft | 466 kts | 341° |
| 2026-05-07 19:56 | 71.71742 | 17.32107 | 39141 ft | 467 kts | 340° |
| 2026-05-07 19:57 | 71.77863 | 17.25218 | 39146 ft | 467 kts | 340° |
| 2026-05-07 19:57 | 71.83944 | 17.18326 | 39143 ft | 467 kts | 340° |
| 2026-05-07 19:58 | 71.90022 | 17.11391 | 39149 ft | 467 kts | 340° |
| 2026-05-07 19:58 | 71.96096 | 17.04411 | 39150 ft | 467 kts | 340° |
| 2026-05-07 19:59 | 72.02338 | 16.99092 | 39162 ft | 465 kts | 353° |
| 2026-05-07 19:59 | 72.08688 | 16.96684 | 39156 ft | 466 kts | 353° |
| 2026-05-07 20:00 | 72.15112 | 16.94237 | 39158 ft | 466 kts | 353° |
| 2026-05-07 20:00 | 72.21523 | 16.91783 | 39159 ft | 466 kts | 353° |
| 2026-05-07 20:01 | 72.27905 | 16.89326 | 39161 ft | 466 kts | 353° |
| 2026-05-07 20:01 | 72.34319 | 16.86844 | 39162 ft | 466 kts | 353° |
| 2026-05-07 20:02 | 72.40709 | 16.84355 | 39165 ft | 466 kts | 354° |
| 2026-05-07 20:02 | 72.47108 | 16.81846 | 39163 ft | 466 kts | 354° |
| 2026-05-07 20:03 | 72.53479 | 16.79332 | 39166 ft | 465 kts | 354° |
| 2026-05-07 20:03 | 72.59878 | 16.76790 | 39165 ft | 464 kts | 354° |
| 2026-05-07 20:04 | 72.66229 | 16.74249 | 39162 ft | 464 kts | 354° |
| 2026-05-07 20:04 | 72.72636 | 16.71668 | 39167 ft | 465 kts | 354° |
| 2026-05-07 20:05 | 72.79002 | 16.69085 | 39174 ft | 465 kts | 354° |
| 2026-05-07 20:05 | 72.85377 | 16.66480 | 39174 ft | 465 kts | 354° |
| 2026-05-07 20:06 | 72.91788 | 16.63841 | 39173 ft | 465 kts | 354° |
| 2026-05-07 20:06 | 72.98150 | 16.61203 | 39171 ft | 465 kts | 354° |
| 2026-05-07 20:07 | 73.04546 | 16.58530 | 39178 ft | 465 kts | 354° |
| 2026-05-07 20:07 | 73.10901 | 16.55858 | 39177 ft | 464 kts | 354° |
| 2026-05-07 20:08 | 73.17298 | 16.53146 | 39180 ft | 464 kts | 354° |
| 2026-05-07 20:08 | 73.23638 | 16.50439 | 39187 ft | 464 kts | 354° |
| 2026-05-07 20:09 | 73.30039 | 16.47685 | 39188 ft | 464 kts | 354° |
| 2026-05-07 20:10 | 73.39603 | 16.43532 | 39195 ft | 464 kts | 354° |
| 2026-05-07 20:10 | 73.45942 | 16.40753 | 39197 ft | 464 kts | 354° |
| 2026-05-07 20:11 | 73.52309 | 16.37940 | 39199 ft | 464 kts | 354° |
| 2026-05-07 20:11 | 73.58733 | 16.35082 | 39201 ft | 464 kts | 354° |
| 2026-05-07 20:12 | 73.65143 | 16.32207 | 39213 ft | 464 kts | 353° |
| 2026-05-07 20:12 | 73.71481 | 16.29342 | 39219 ft | 464 kts | 353° |
| 2026-05-07 20:13 | 73.77848 | 16.26443 | 39217 ft | 465 kts | 353° |
| 2026-05-07 20:13 | 73.84238 | 16.23517 | 39216 ft | 465 kts | 353° |
| 2026-05-07 20:14 | 73.90614 | 16.20578 | 39210 ft | 464 kts | 353° |
| 2026-05-07 20:14 | 73.96994 | 16.17612 | 39215 ft | 464 kts | 353° |
| 2026-05-07 20:15 | 74.03241 | 16.14682 | 39220 ft | 449 kts | 353° |
| 2026-05-07 20:15 | 74.09309 | 16.11816 | 39218 ft | 438 kts | 353° |
| 2026-05-07 20:16 | 74.15323 | 16.08954 | 39218 ft | 435 kts | 353° |
| 2026-05-07 20:16 | 74.21271 | 16.06102 | 39224 ft | 435 kts | 353° |
| 2026-05-07 20:17 | 74.27210 | 16.03231 | 39226 ft | 435 kts | 353° |
| 2026-05-07 20:17 | 74.33200 | 16.00313 | 39229 ft | 435 kts | 353° |
| 2026-05-07 20:18 | 74.39156 | 15.97390 | 39233 ft | 435 kts | 353° |
| 2026-05-07 20:18 | 74.45107 | 15.94446 | 39234 ft | 435 kts | 353° |
| 2026-05-07 20:19 | 74.51073 | 15.91472 | 39243 ft | 435 kts | 353° |
| 2026-05-07 20:19 | 74.56958 | 15.88513 | 39239 ft | 419 kts | 353° |
| 2026-05-07 20:20 | 74.62600 | 15.85658 | 39240 ft | 409 kts | 353° |
| 2026-05-07 20:20 | 74.68207 | 15.82803 | 39244 ft | 406 kts | 353° |
| 2026-05-07 20:21 | 74.73759 | 15.79954 | 39250 ft | 405 kts | 353° |
| 2026-05-07 20:21 | 74.79321 | 15.77080 | 39245 ft | 405 kts | 353° |
| 2026-05-07 20:22 | 74.84872 | 15.74189 | 39249 ft | 405 kts | 353° |
| 2026-05-07 20:22 | 74.90424 | 15.71276 | 39253 ft | 405 kts | 353° |
| 2026-05-07 20:23 | 74.95995 | 15.68332 | 39256 ft | 406 kts | 353° |
| 2026-05-07 20:23 | 75.01519 | 15.65391 | 39257 ft | 406 kts | 353° |
| 2026-05-07 20:24 | 75.07088 | 15.62404 | 39260 ft | 406 kts | 353° |
| 2026-05-07 20:24 | 75.12670 | 15.59387 | 39259 ft | 405 kts | 353° |
| 2026-05-07 20:25 | 75.18216 | 15.56367 | 39260 ft | 405 kts | 353° |
| 2026-05-07 20:25 | 75.23746 | 15.53335 | 39262 ft | 405 kts | 353° |
| 2026-05-07 20:26 | 75.29326 | 15.50252 | 39260 ft | 405 kts | 353° |
| 2026-05-07 20:26 | 75.34851 | 15.47176 | 39257 ft | 405 kts | 353° |
| 2026-05-07 20:27 | 75.40429 | 15.44048 | 39257 ft | 405 kts | 353° |
| 2026-05-07 20:27 | 75.45966 | 15.40919 | 39268 ft | 405 kts | 353° |
| 2026-05-07 20:28 | 75.51497 | 15.37771 | 39253 ft | 405 kts | 353° |
| 2026-05-07 20:28 | 75.57061 | 15.34579 | 39259 ft | 410 kts | 352° |
| 2026-05-07 20:29 | 75.62809 | 15.31258 | 39270 ft | 424 kts | 352° |
| 2026-05-07 20:29 | 75.68672 | 15.27841 | 39277 ft | 436 kts | 352° |
| 2026-05-07 20:30 | 75.74720 | 15.24285 | 39280 ft | 447 kts | 352° |
| 2026-05-07 20:30 | 75.80933 | 15.20600 | 39284 ft | 456 kts | 352° |
| 2026-05-07 20:31 | 75.87226 | 15.16834 | 39290 ft | 462 kts | 352° |
| 2026-05-07 20:31 | 75.93547 | 15.13018 | 39288 ft | 465 kts | 352° |
| 2026-05-07 20:32 | 75.99958 | 15.09112 | 39301 ft | 465 kts | 352° |
| 2026-05-07 20:32 | 76.06319 | 15.05204 | 39298 ft | 464 kts | 352° |
| 2026-05-07 20:33 | 76.12651 | 15.01279 | 39290 ft | 463 kts | 352° |
| 2026-05-07 20:33 | 76.19073 | 14.97262 | 39285 ft | 463 kts | 352° |
| 2026-05-07 20:34 | 76.25379 | 14.93282 | 39281 ft | 463 kts | 352° |
| 2026-05-07 20:34 | 76.31725 | 14.89241 | 39284 ft | 462 kts | 352° |
| 2026-05-07 20:35 | 76.38013 | 14.85158 | 38717 ft | 459 kts | 352° |
| 2026-05-07 20:35 | 76.41129 | 14.83111 | 38161 ft | 455 kts | 352° |
| 2026-05-07 20:35 | 76.44222 | 14.81070 | 37613 ft | 453 kts | 352° |
| 2026-05-07 20:35 | 76.47311 | 14.79024 | 36992 ft | 455 kts | 352° |
| 2026-05-07 20:36 | 76.50438 | 14.76943 | 36377 ft | 455 kts | 352° |
| 2026-05-07 20:36 | 76.53497 | 14.74897 | 35781 ft | 454 kts | 352° |
| 2026-05-07 20:36 | 76.56633 | 14.72791 | 35183 ft | 452 kts | 352° |
| 2026-05-07 20:36 | 76.59708 | 14.70715 | 34580 ft | 451 kts | 353° |
| 2026-05-07 20:37 | 76.62771 | 14.68639 | 33987 ft | 449 kts | 353° |
| 2026-05-07 20:37 | 76.65797 | 14.66578 | 33492 ft | 447 kts | 353° |
| 2026-05-07 20:37 | 76.68856 | 14.64488 | 32868 ft | 454 kts | 353° |
| 2026-05-07 20:37 | 76.71979 | 14.62345 | 32164 ft | 459 kts | 353° |
| 2026-05-07 20:38 | 76.75128 | 14.60169 | 31330 ft | 458 kts | 353° |
| 2026-05-07 20:38 | 76.78178 | 14.58048 | 30664 ft | 439 kts | 353° |
| 2026-05-07 20:38 | 76.81139 | 14.55978 | 30083 ft | 423 kts | 353° |
| 2026-05-07 20:38 | 76.83962 | 14.54000 | 29514 ft | 408 kts | 353° |
| 2026-05-07 20:39 | 76.86692 | 14.52079 | 29001 ft | 393 kts | 353° |
| 2026-05-07 20:39 | 76.89323 | 14.50222 | 28514 ft | 381 kts | 353° |
| 2026-05-07 20:39 | 76.91913 | 14.48393 | 27996 ft | 378 kts | 353° |
| 2026-05-07 20:39 | 76.94470 | 14.46579 | 27506 ft | 373 kts | 353° |
| 2026-05-07 20:40 | 76.97021 | 14.44762 | 27009 ft | 369 kts | 353° |
| 2026-05-07 20:40 | 76.99503 | 14.42987 | 26530 ft | 365 kts | 353° |
| 2026-05-07 20:40 | 77.02000 | 14.41194 | 26051 ft | 361 kts | 353° |
| 2026-05-07 20:40 | 77.04462 | 14.39420 | 25567 ft | 358 kts | 353° |
| 2026-05-07 20:41 | 77.06870 | 14.37676 | 25096 ft | 354 kts | 353° |
| 2026-05-07 20:41 | 77.09268 | 14.35934 | 24630 ft | 350 kts | 353° |
| 2026-05-07 20:41 | 77.11652 | 14.34196 | 24173 ft | 346 kts | 353° |
| 2026-05-07 20:41 | 77.14002 | 14.32476 | 23725 ft | 342 kts | 353° |
| 2026-05-07 20:42 | 77.16356 | 14.31785 | 23262 ft | 334 kts | 7° |
| 2026-05-07 20:42 | 77.18570 | 14.34433 | 22769 ft | 327 kts | 24° |
| 2026-05-07 20:42 | 77.20628 | 14.38470 | 22287 ft | 323 kts | 25° |
| 2026-05-07 20:42 | 77.22674 | 14.42457 | 21884 ft | 319 kts | 24° |
| 2026-05-07 20:43 | 77.24677 | 14.46378 | 21465 ft | 320 kts | 24° |
| 2026-05-07 20:43 | 77.26715 | 14.50380 | 21022 ft | 320 kts | 24° |
| 2026-05-07 20:43 | 77.28740 | 14.54368 | 20619 ft | 319 kts | 25° |
| 2026-05-07 20:43 | 77.30775 | 14.58393 | 20179 ft | 315 kts | 25° |
| 2026-05-07 20:44 | 77.32772 | 14.62360 | 19778 ft | 313 kts | 25° |
| 2026-05-07 20:44 | 77.34729 | 14.66263 | 19371 ft | 311 kts | 25° |
| 2026-05-07 20:44 | 77.36719 | 14.70246 | 18948 ft | 309 kts | 26° |
| 2026-05-07 20:44 | 77.38684 | 14.74193 | 18549 ft | 307 kts | 26° |
| 2026-05-07 20:45 | 77.40617 | 14.78089 | 18135 ft | 304 kts | 26° |
| 2026-05-07 20:45 | 77.42527 | 14.81955 | 17719 ft | 304 kts | 26° |
| 2026-05-07 20:45 | 77.44443 | 14.85844 | 17296 ft | 301 kts | 26° |
| 2026-05-07 20:45 | 77.46349 | 14.89729 | 16869 ft | 300 kts | 26° |
| 2026-05-07 20:46 | 77.48243 | 14.93602 | 16445 ft | 298 kts | 26° |
| 2026-05-07 20:46 | 77.50127 | 14.97468 | 16027 ft | 297 kts | 26° |
| 2026-05-07 20:46 | 77.51999 | 15.01321 | 15631 ft | 294 kts | 26° |
| 2026-05-07 20:46 | 77.53838 | 15.05119 | 15283 ft | 292 kts | 26° |
| 2026-05-07 20:47 | 77.55680 | 15.08935 | 14926 ft | 291 kts | 26° |
| 2026-05-07 20:47 | 77.57519 | 15.12757 | 14555 ft | 289 kts | 26° |
| 2026-05-07 20:47 | 77.59336 | 15.16546 | 14227 ft | 287 kts | 26° |
| 2026-05-07 20:47 | 77.61143 | 15.20326 | 13829 ft | 286 kts | 26° |
| 2026-05-07 20:48 | 77.62943 | 15.24102 | 13491 ft | 284 kts | 26° |
| 2026-05-07 20:48 | 77.64754 | 15.27916 | 13118 ft | 283 kts | 26° |
| 2026-05-07 20:48 | 77.66536 | 15.31677 | 12744 ft | 282 kts | 26° |
| 2026-05-07 20:48 | 77.68304 | 15.35422 | 12373 ft | 280 kts | 25° |
| 2026-05-07 20:49 | 77.70079 | 15.39195 | 12023 ft | 279 kts | 25° |
| 2026-05-07 20:49 | 77.71843 | 15.42956 | 11643 ft | 278 kts | 25° |
| 2026-05-07 20:49 | 77.73589 | 15.46690 | 11294 ft | 275 kts | 25° |
| 2026-05-07 20:49 | 77.75330 | 15.50424 | 10923 ft | 274 kts | 25° |
| 2026-05-07 20:50 | 77.77043 | 15.54111 | 10558 ft | 271 kts | 25° |
| 2026-05-07 20:50 | 77.78762 | 15.57823 | 10198 ft | 271 kts | 25° |
| 2026-05-07 20:50 | 77.80455 | 15.61488 | 9835 ft | 268 kts | 25° |
| 2026-05-07 20:50 | 77.82157 | 15.65184 | 9478 ft | 267 kts | 26° |
| 2026-05-07 20:51 | 77.83877 | 15.68933 | 9108 ft | 266 kts | 26° |
| 2026-05-07 20:51 | 77.85555 | 15.72599 | 8755 ft | 265 kts | 26° |
| 2026-05-07 20:51 | 77.87199 | 15.76204 | 8398 ft | 264 kts | 26° |
| 2026-05-07 20:51 | 77.88856 | 15.79849 | 8065 ft | 263 kts | 26° |
| 2026-05-07 20:52 | 77.90516 | 15.83510 | 7692 ft | 262 kts | 26° |
| 2026-05-07 20:52 | 77.92136 | 15.87092 | 7368 ft | 261 kts | 26° |
| 2026-05-07 20:52 | 77.93785 | 15.90753 | 7026 ft | 259 kts | 26° |
| 2026-05-07 20:52 | 77.95407 | 15.94361 | 6706 ft | 256 kts | 26° |
| 2026-05-07 20:53 | 77.97010 | 15.97938 | 6357 ft | 257 kts | 26° |
| 2026-05-07 20:53 | 77.98632 | 16.01571 | 6033 ft | 260 kts | 26° |
| 2026-05-07 20:53 | 78.00384 | 16.04419 | 5425 ft | 272 kts | 7° |
| 2026-05-07 20:53 | 78.02285 | 16.04218 | 5022 ft | 269 kts | 357° |
| 2026-05-07 20:54 | 78.04102 | 16.03531 | 4625 ft | 262 kts | 352° |
| 2026-05-07 20:54 | 78.05877 | 16.02443 | 4204 ft | 255 kts | 357° |
| 2026-05-07 20:54 | 78.07604 | 16.02137 | 4176 ft | 251 kts | 0° |
| 2026-05-07 20:54 | 78.09323 | 16.02056 | 4176 ft | 238 kts | 359° |
| 2026-05-07 20:55 | 78.10957 | 16.01773 | 3905 ft | 232 kts | 358° |
| 2026-05-07 20:55 | 78.12542 | 16.01383 | 3579 ft | 228 kts | 358° |
| 2026-05-07 20:55 | 78.14110 | 16.00975 | 3258 ft | 224 kts | 358° |
| 2026-05-07 20:55 | 78.15669 | 16.00397 | 2960 ft | 221 kts | 352° |
| 2026-05-07 20:56 | 78.17060 | 15.98355 | 2631 ft | 198 kts | 335° |
| 2026-05-07 20:56 | 78.18120 | 15.95045 | 2462 ft | 166 kts | 324° |
| 2026-05-07 20:56 | 78.19012 | 15.91833 | 2201 ft | 154 kts | 325° |
| 2026-05-07 20:56 | 78.19827 | 15.88918 | 2019 ft | 144 kts | 325° |
| 2026-05-07 20:57 | 78.20641 | 15.85996 | 1769 ft | 150 kts | 325° |
| 2026-05-07 20:57 | 78.21487 | 15.82923 | 1549 ft | 148 kts | 324° |
| 2026-05-07 20:57 | 78.22254 | 15.79549 | 1376 ft | 155 kts | 314° |
| 2026-05-07 20:57 | 78.22891 | 15.75156 | 1113 ft | 157 kts | 295° |
| 2026-05-07 20:58 | 78.23249 | 15.70338 | 994 ft | 139 kts | 288° |
| 2026-05-07 20:58 | 78.23489 | 15.66079 | 887 ft | 131 kts | 286° |
| 2026-05-07 20:58 | 78.23737 | 15.61812 | 762 ft | 126 kts | 288° |
| 2026-05-07 20:58 | 78.23990 | 15.57587 | 522 ft | 128 kts | 286° |
| 2026-05-07 20:59 | 78.24219 | 15.53603 | 250 ft | 121 kts | 285° |
| 2026-05-07 20:59 | 78.24434 | 15.49752 | 95 ft | 107 kts | 287° |
| 2026-05-07 20:59 | 78.24588 | 15.46984 | 104 ft | 43 kts | 285° |
| 2026-05-07 20:59 | 78.24621 | 15.46464 | 104 ft | 6 kts | 47° |
| 2026-05-07 21:00 | 78.24593 | 15.46931 | 104 ft | 20 kts | 109° |
| 2026-05-07 21:00 | 78.24553 | 15.47611 | 103 ft | 18 kts | 105° |
| 2026-05-07 21:00 | 78.24526 | 15.48129 | 103 ft | 9 kts | 106° |
| 2026-05-07 21:00 | 78.24517 | 15.48274 | 102 ft | 12 kts | 106° |
| 2026-05-07 21:01 | 78.24487 | 15.48835 | 99 ft | 19 kts | 107° |
| 2026-05-07 21:01 | 78.24469 | 15.49362 | 96 ft | 14 kts | 76° |
| 2026-05-07 21:01 | 78.24484 | 15.49469 | 96 ft | 5 kts | 5° |
| 2026-05-07 21:01 | 78.24545 | 15.49473 | 96 ft | 11 kts | 349° |
| 2026-05-07 21:02 | 78.24599 | 15.49157 | 97 ft | 14 kts | 301° |
| 2026-05-07 21:02 | 78.24633 | 15.48816 | 99 ft | 9 kts | 288° |
| 2026-05-07 21:02 | 78.24668 | 15.48629 | 99 ft | 5 kts | 13° |
| 2026-05-07 21:02 | 78.24676 | 15.48698 | 98 ft | 0 kts | 105° |